createdAt,value
2022-10-20T00:00:49.704Z,5.00
2022-10-20T00:03:20.330Z,5.00
2022-10-20T00:05:50.948Z,5.00
2022-10-20T00:08:21.679Z,5.00
2022-10-20T00:10:58.481Z,4.90
2022-10-20T00:13:28.979Z,4.80
2022-10-20T00:16:02.096Z,4.90
2022-10-20T00:18:32.461Z,4.90
2022-10-20T00:21:03.047Z,4.90
2022-10-20T00:23:33.958Z,5.00
2022-10-20T00:28:59.822Z,5.10
2022-10-20T00:31:32.045Z,5.10
2022-10-20T00:34:02.809Z,5.10
2022-10-20T00:36:33.439Z,5.00
2022-10-20T00:39:06.149Z,5.00
2022-10-20T00:41:38.276Z,4.90
2022-10-20T00:44:41.381Z,4.80
2022-10-20T00:47:15.830Z,4.70
2022-10-20T00:49:47.524Z,4.70
2022-10-20T00:52:21.437Z,4.60
2022-10-20T00:54:53.615Z,4.60
2022-10-20T00:57:24.159Z,4.70
2022-10-20T00:59:54.677Z,4.70
2022-10-20T01:02:26.723Z,4.70
2022-10-20T01:04:57.636Z,4.60
2022-10-20T01:07:30.664Z,4.60
2022-10-20T01:10:01.644Z,4.70
2022-10-20T01:12:37.352Z,4.80
2022-10-20T01:15:16.953Z,4.80
2022-10-20T01:21:09.423Z,4.70
2022-10-20T01:24:15.462Z,4.80
2022-10-20T01:27:27.114Z,4.70
2022-10-20T01:30:05.222Z,4.70
2022-10-20T01:32:44.147Z,4.70
2022-10-20T01:35:20.430Z,4.60
2022-10-20T01:37:54.940Z,4.60
2022-10-20T01:40:31.856Z,4.60
2022-10-20T01:43:06.427Z,4.50
2022-10-20T01:45:40.336Z,4.50
2022-10-20T01:48:12.629Z,4.50
2022-10-20T01:50:44.081Z,4.50
2022-10-20T01:53:14.530Z,4.50
2022-10-20T01:55:57.037Z,4.50
2022-10-20T01:58:58.890Z,4.50
2022-10-20T02:01:40.274Z,4.50
2022-10-20T02:04:15.203Z,4.60
2022-10-20T02:06:54.240Z,4.70
2022-10-20T02:09:33.485Z,4.80
2022-10-20T02:12:09.121Z,4.90
2022-10-20T02:14:41.226Z,4.80
2022-10-20T02:17:16.983Z,4.80
2022-10-20T02:19:50.336Z,4.70
2022-10-20T02:22:23.303Z,4.60
2022-10-20T02:24:55.208Z,4.50
2022-10-20T02:27:30.959Z,4.40
2022-10-20T02:30:04.732Z,4.30
2022-10-20T02:35:16.585Z,4.20
2022-10-20T02:37:47.082Z,4.30
2022-10-20T02:40:31.159Z,4.30
2022-10-20T02:43:01.511Z,4.30
2022-10-20T02:45:31.904Z,4.30
2022-10-20T02:48:06.279Z,4.30
2022-10-20T02:50:40.011Z,4.30
2022-10-20T02:53:12.880Z,4.30
2022-10-20T02:55:43.821Z,4.20
2022-10-20T02:58:14.090Z,4.20
2022-10-20T03:00:44.440Z,4.10
2022-10-20T03:03:14.746Z,4.00
2022-10-20T03:05:47.813Z,4.00
2022-10-20T03:08:18.356Z,4.00
2022-10-20T03:10:48.729Z,3.90
2022-10-20T03:13:19.097Z,3.80
2022-10-20T03:15:51.480Z,3.80
2022-10-20T03:18:21.770Z,3.80
2022-10-20T03:20:55.934Z,3.80
2022-10-20T03:23:26.696Z,3.80
2022-10-20T03:26:03.262Z,3.80
2022-10-20T03:28:36.812Z,3.80
2022-10-20T03:31:07.332Z,3.90
2022-10-20T03:33:38.719Z,3.80
2022-10-20T03:36:11.161Z,3.80
2022-10-20T03:38:44.396Z,3.80
2022-10-20T03:41:15.138Z,3.80
2022-10-20T03:43:45.469Z,3.80
2022-10-20T03:46:15.943Z,3.90
2022-10-20T03:48:46.205Z,4.00
2022-10-20T03:51:19.091Z,4.10
2022-10-20T03:53:49.371Z,4.10
2022-10-20T03:56:21.706Z,4.20
2022-10-20T03:58:54.058Z,4.30
2022-10-20T04:01:29.353Z,4.30
2022-10-20T04:03:59.703Z,4.40
2022-10-20T04:06:34.672Z,4.40
2022-10-20T04:09:05.690Z,4.40
2022-10-20T04:11:36.093Z,4.40
2022-10-20T04:14:06.674Z,4.40
2022-10-20T04:16:36.957Z,4.30
2022-10-20T04:19:07.220Z,4.30
2022-10-20T04:21:39.096Z,4.30
2022-10-20T04:24:09.463Z,4.30
2022-10-20T04:26:39.842Z,4.30
2022-10-20T04:29:10.231Z,4.20
2022-10-20T04:31:41.243Z,4.20
2022-10-20T04:34:13.735Z,4.20
2022-10-20T04:36:45.827Z,4.10
2022-10-20T04:39:16.385Z,4.10
2022-10-20T04:41:46.770Z,4.20
2022-10-20T04:44:17.508Z,4.30
2022-10-20T04:46:47.819Z,4.30
2022-10-20T04:49:18.593Z,4.40
2022-10-20T04:51:50.788Z,4.40
2022-10-20T04:54:21.044Z,4.50
2022-10-20T04:56:51.371Z,4.50
2022-10-20T04:59:21.674Z,4.50
2022-10-20T05:01:52.038Z,4.50
2022-10-20T05:04:23.169Z,4.60
2022-10-20T05:06:55.142Z,4.60
2022-10-20T05:09:25.339Z,4.60
2022-10-20T05:11:55.682Z,4.60
2022-10-20T05:14:26.039Z,4.60
2022-10-20T05:16:56.382Z,4.60
2022-10-20T05:19:27.090Z,4.60
2022-10-20T05:21:59.204Z,4.60
2022-10-20T05:24:30.147Z,4.60
2022-10-20T05:27:00.572Z,4.60
2022-10-20T05:29:30.859Z,4.60
2022-10-20T05:32:01.292Z,4.60
2022-10-20T05:34:32.145Z,4.60
2022-10-20T05:37:03.958Z,4.60
2022-10-20T05:39:34.172Z,4.70
2022-10-20T05:42:04.523Z,4.70
2022-10-20T05:44:35.032Z,4.80
2022-10-20T05:47:05.384Z,4.90
2022-10-20T05:49:35.582Z,5.00
2022-10-20T05:52:07.564Z,5.00
2022-10-20T05:54:37.895Z,5.10
2022-10-20T05:57:08.208Z,5.10
2022-10-20T05:59:38.522Z,5.10
2022-10-20T06:02:08.951Z,5.20
2022-10-20T06:04:39.233Z,5.30
2022-10-20T06:07:12.137Z,5.30
2022-10-20T06:09:43.198Z,5.30
2022-10-20T06:12:13.609Z,5.40
2022-10-20T06:14:43.854Z,5.40
2022-10-20T06:17:14.154Z,5.40
2022-10-20T06:19:44.424Z,5.40
2022-10-20T06:22:16.370Z,5.50
2022-10-20T06:24:46.617Z,5.50
2022-10-20T06:27:16.884Z,5.60
2022-10-20T06:29:47.130Z,5.60
2022-10-20T06:32:18.943Z,5.60
2022-10-20T06:34:49.729Z,5.70
2022-10-20T06:37:21.879Z,5.70
2022-10-20T06:39:52.321Z,5.70
2022-10-20T06:42:22.645Z,5.80
2022-10-20T06:44:52.887Z,5.80
2022-10-20T06:47:23.222Z,5.80
2022-10-20T06:49:53.457Z,5.80
2022-10-20T06:52:25.486Z,5.70
2022-10-20T06:54:55.810Z,5.70
2022-10-20T06:57:26.237Z,5.70
2022-10-20T06:59:56.554Z,5.60
2022-10-20T07:02:26.885Z,5.70
2022-10-20T07:04:57.215Z,5.60
2022-10-20T07:07:29.433Z,5.50
2022-10-20T07:09:59.664Z,5.50
2022-10-20T07:12:29.924Z,5.50
2022-10-20T07:15:00.231Z,5.40
2022-10-20T07:17:30.606Z,5.30
2022-10-20T07:20:00.858Z,5.30
2022-10-20T07:22:34.480Z,5.20
2022-10-20T07:25:07.112Z,5.20
2022-10-20T07:27:37.439Z,5.10
2022-10-20T07:30:08.556Z,5.00
2022-10-20T07:32:39.438Z,5.00
2022-10-20T07:35:10.733Z,4.90
2022-10-20T07:37:42.616Z,5.00
2022-10-20T07:40:14.268Z,5.10
2022-10-20T07:42:44.679Z,5.10
2022-10-20T07:45:15.155Z,5.20
2022-10-20T07:47:47.663Z,5.20
2022-10-20T07:50:18.176Z,5.20
2022-10-20T07:52:54.334Z,5.20
2022-10-20T07:55:38.245Z,5.20
2022-10-20T07:58:09.519Z,5.10
2022-10-20T08:03:11.468Z,5.00
2022-10-20T08:05:41.735Z,4.90
2022-10-20T08:08:13.826Z,4.90
2022-10-20T08:10:44.055Z,4.80
2022-10-20T08:13:14.492Z,4.80
2022-10-20T08:15:49.965Z,4.80
2022-10-20T08:18:23.460Z,4.80
2022-10-20T08:20:53.765Z,4.80
2022-10-20T08:23:25.822Z,4.80
2022-10-20T08:25:58.766Z,4.80
2022-10-20T08:28:29.133Z,4.80
2022-10-20T08:30:59.386Z,4.80
2022-10-20T08:33:32.191Z,4.80
2022-10-20T08:36:06.030Z,4.80
2022-10-20T08:38:38.775Z,4.80
2022-10-20T08:41:17.172Z,4.90
2022-10-20T08:43:49.702Z,4.90
2022-10-20T08:46:21.946Z,4.90
2022-10-20T08:48:53.561Z,4.90
2022-10-20T08:51:26.755Z,4.90
2022-10-20T08:54:02.004Z,4.90
2022-10-20T08:56:33.767Z,4.90
2022-10-20T08:59:05.576Z,4.90
2022-10-20T09:01:38.451Z,4.90
2022-10-20T09:04:19.502Z,4.90
2022-10-20T09:06:54.345Z,4.90
2022-10-20T09:09:28.175Z,4.90
2022-10-20T09:12:04.676Z,4.90
2022-10-20T09:14:38.971Z,4.90
2022-10-20T09:17:14.710Z,4.90
2022-10-20T09:19:48.452Z,4.90
2022-10-20T09:22:19.938Z,4.80
2022-10-20T09:24:54.596Z,4.80
2022-10-20T09:27:27.483Z,4.80
2022-10-20T09:29:58.097Z,4.80
2022-10-20T09:32:51.858Z,4.80
2022-10-20T09:35:25.800Z,4.80
2022-10-20T09:38:03.963Z,4.80
2022-10-20T09:40:36.127Z,4.80
2022-10-20T09:43:12.655Z,4.70
2022-10-20T09:45:55.361Z,4.70
2022-10-20T09:48:28.139Z,4.70
2022-10-20T09:51:00.395Z,4.70
2022-10-20T09:53:35.004Z,4.70
2022-10-20T09:56:07.596Z,4.70
2022-10-20T09:58:40.461Z,4.60
2022-10-20T10:01:18.031Z,4.60
2022-10-20T10:03:49.751Z,4.60
2022-10-20T10:06:30.493Z,4.60
2022-10-20T10:09:02.472Z,4.60
2022-10-20T10:11:38.080Z,4.60
2022-10-20T10:14:08.448Z,4.60
2022-10-20T10:16:45.514Z,4.60
2022-10-20T10:19:22.003Z,4.50
2022-10-20T10:21:57.817Z,4.50
2022-10-20T10:24:44.328Z,4.50
2022-10-20T10:27:28.173Z,4.50
2022-10-20T10:29:59.360Z,4.50
2022-10-20T10:32:31.845Z,4.50
2022-10-20T10:35:26.174Z,4.50
2022-10-20T10:37:58.061Z,4.50
2022-10-20T10:40:38.192Z,4.50
2022-10-20T10:43:32.073Z,4.40
2022-10-20T10:46:08.684Z,4.40
2022-10-20T10:49:02.673Z,4.40
2022-10-20T10:51:44.624Z,4.40
2022-10-20T10:54:30.381Z,4.30
2022-10-20T10:57:06.972Z,4.30
2022-10-20T10:59:46.357Z,4.30
2022-10-20T11:02:44.904Z,4.30
2022-10-20T11:05:36.047Z,4.30
2022-10-20T11:08:16.450Z,4.30
2022-10-20T11:10:54.524Z,4.30
2022-10-20T11:13:32.054Z,4.30
2022-10-20T11:16:29.103Z,4.30
2022-10-20T11:19:26.685Z,4.30
2022-10-20T11:22:07.628Z,4.30
2022-10-20T11:24:50.610Z,4.20
2022-10-20T11:27:24.713Z,4.20
2022-10-20T11:30:06.379Z,4.30
2022-10-20T11:32:44.734Z,4.30
2022-10-20T11:35:24.300Z,4.30
2022-10-20T11:38:05.598Z,4.30
2022-10-20T11:40:42.431Z,4.20
2022-10-20T11:43:21.736Z,4.20
2022-10-20T11:45:56.472Z,4.00
2022-10-20T11:48:33.064Z,3.90
2022-10-20T11:51:25.308Z,3.80
2022-10-20T11:54:23.804Z,3.70
2022-10-20T11:57:19.407Z,3.60
2022-10-20T12:03:30.928Z,3.60
2022-10-20T12:06:29.612Z,3.70
2022-10-20T12:09:40.377Z,3.80
2022-10-20T12:12:15.531Z,3.80
2022-10-20T12:14:48.100Z,3.90
2022-10-20T12:17:33.422Z,4.00
2022-10-20T12:21:04.488Z,4.10
2022-10-20T12:24:06.411Z,4.20
2022-10-20T12:27:20.625Z,4.20
2022-10-20T12:30:05.352Z,4.30
2022-10-20T12:33:10.630Z,4.40
2022-10-20T12:36:03.773Z,4.40
2022-10-20T12:38:34.883Z,4.50
2022-10-20T12:41:08.329Z,4.50
2022-10-20T12:43:50.566Z,4.50
2022-10-20T12:46:25.148Z,4.60
2022-10-20T12:49:00.662Z,4.70
2022-10-20T12:51:41.513Z,4.70
2022-10-20T12:54:28.321Z,4.80
2022-10-20T12:57:05.107Z,4.80
2022-10-20T12:59:43.714Z,4.70
2022-10-20T13:02:48.189Z,4.70
2022-10-20T13:05:46.536Z,4.70
2022-10-20T13:08:33.565Z,4.80
2022-10-20T13:11:43.866Z,4.90
2022-10-20T13:14:51.570Z,5.00
2022-10-20T13:17:38.497Z,5.00
2022-10-20T13:20:23.164Z,5.10
2022-10-20T13:22:55.321Z,5.20
2022-10-20T13:25:41.300Z,5.10
2022-10-20T13:28:21.320Z,5.20
2022-10-20T13:31:17.642Z,5.30
2022-10-20T13:34:05.339Z,5.40
2022-10-20T13:36:52.736Z,5.50
2022-10-20T13:39:30.339Z,5.70
2022-10-20T13:42:14.808Z,5.70
2022-10-20T13:44:52.887Z,5.80
2022-10-20T13:47:42.645Z,5.90
2022-10-20T13:50:16.023Z,6.00
2022-10-20T13:52:51.477Z,6.00
2022-10-20T13:55:24.814Z,6.00
2022-10-20T13:57:57.742Z,6.10
2022-10-20T14:00:29.836Z,6.10
2022-10-20T14:03:05.068Z,6.20
2022-10-20T14:05:41.006Z,6.30
2022-10-20T14:08:12.349Z,6.50
2022-10-20T14:10:49.628Z,6.60
2022-10-20T14:13:22.385Z,6.90
2022-10-20T14:15:54.635Z,6.90
2022-10-20T14:18:28.585Z,6.90
2022-10-20T14:21:03.368Z,6.90
2022-10-20T14:23:39.226Z,7.00
2022-10-20T14:26:14.169Z,7.10
2022-10-20T14:28:46.052Z,7.10
2022-10-20T14:31:17.114Z,7.10
2022-10-20T14:33:50.661Z,7.10
2022-10-20T14:36:23.722Z,7.10
2022-10-20T14:38:56.190Z,7.10
2022-10-20T14:41:31.377Z,7.00
2022-10-20T14:44:05.201Z,6.80
2022-10-20T14:46:39.061Z,6.70
2022-10-20T14:49:18.612Z,6.60
2022-10-20T14:51:57.982Z,6.50
2022-10-20T14:54:37.199Z,6.40
2022-10-20T14:57:40.277Z,6.40
2022-10-20T15:00:35.530Z,6.40
2022-10-20T15:03:08.946Z,6.40
2022-10-20T15:05:45.814Z,6.50
2022-10-20T15:08:29.120Z,6.60
2022-10-20T15:11:00.074Z,6.70
2022-10-20T15:13:32.306Z,6.90
2022-10-20T15:16:05.319Z,7.10
2022-10-20T15:18:39.295Z,7.20
2022-10-20T15:21:12.642Z,7.20
2022-10-20T15:23:42.823Z,7.30
2022-10-20T15:26:15.480Z,7.20
2022-10-20T15:28:48.513Z,7.20
2022-10-20T15:31:22.947Z,7.30
2022-10-20T15:33:54.058Z,7.30
2022-10-20T15:36:29.684Z,7.40
2022-10-20T15:39:00.449Z,7.40
2022-10-20T15:41:31.965Z,7.40
2022-10-20T15:44:07.529Z,7.30
2022-10-20T15:46:37.800Z,7.30
2022-10-20T15:49:23.083Z,7.30
2022-10-20T15:51:55.611Z,7.40
2022-10-20T15:54:25.990Z,7.40
2022-10-20T15:56:56.369Z,7.60
2022-10-20T15:59:26.578Z,7.50
2022-10-20T16:01:57.599Z,7.40
2022-10-20T16:04:28.639Z,7.40
2022-10-20T16:07:02.992Z,7.20
2022-10-20T16:09:34.447Z,7.40
2022-10-20T16:12:04.750Z,7.40
2022-10-20T16:14:34.994Z,7.60
2022-10-20T16:17:05.395Z,7.70
2022-10-20T16:19:35.650Z,7.90
2022-10-20T16:22:07.590Z,8.30
2022-10-20T16:24:37.844Z,8.70
2022-10-20T16:27:08.267Z,9.00
2022-10-20T16:29:38.505Z,9.00
2022-10-20T16:32:08.734Z,8.80
2022-10-20T16:34:39.058Z,8.80
2022-10-20T16:37:11.474Z,8.50
2022-10-20T16:39:41.965Z,8.40
2022-10-20T16:42:12.365Z,8.30
2022-10-20T16:44:42.714Z,8.60
2022-10-20T16:47:13.141Z,9.20
2022-10-20T16:49:43.389Z,9.40
2022-10-20T16:52:15.415Z,9.70
2022-10-20T16:54:45.628Z,9.80
2022-10-20T16:57:16.026Z,9.80
2022-10-20T16:59:50.602Z,9.40
2022-10-20T17:02:21.730Z,9.30
2022-10-20T17:04:52.210Z,9.30
2022-10-20T17:07:24.122Z,9.20
2022-10-20T17:09:54.339Z,9.10
2022-10-20T17:12:24.895Z,9.40
2022-10-20T17:14:55.128Z,9.50
2022-10-20T17:17:25.479Z,9.70
2022-10-20T17:19:55.813Z,9.90
2022-10-20T17:22:28.038Z,10.10
2022-10-20T17:24:58.295Z,10.20
2022-10-20T17:27:28.604Z,10.40
2022-10-20T17:29:58.886Z,10.40
2022-10-20T17:32:29.223Z,10.80
2022-10-20T17:34:59.671Z,10.60
2022-10-20T17:37:31.753Z,10.50
2022-10-20T17:40:02.517Z,10.30
2022-10-20T17:42:34.411Z,9.90
2022-10-20T17:45:04.786Z,9.50
2022-10-20T17:47:35.058Z,9.20
2022-10-20T17:50:05.320Z,8.90
2022-10-20T17:52:37.523Z,8.60
2022-10-20T17:55:08.648Z,8.40
2022-10-20T17:57:39.080Z,7.90
2022-10-20T18:00:16.461Z,7.20
2022-10-20T18:02:54.168Z,6.80
2022-10-20T18:05:24.494Z,6.60
2022-10-20T18:07:56.525Z,6.40
2022-10-20T18:10:40.261Z,6.40
2022-10-20T18:13:13.151Z,6.40
2022-10-20T18:15:46.333Z,6.40
2022-10-20T18:18:16.504Z,6.50
2022-10-20T18:20:55.695Z,6.70
2022-10-20T18:23:28.853Z,6.80
2022-10-20T18:25:59.411Z,7.00
2022-10-20T18:28:29.716Z,7.10
2022-10-20T18:31:05.354Z,7.40
2022-10-20T18:33:35.888Z,7.50
2022-10-20T18:36:07.560Z,7.60
2022-10-20T18:38:41.049Z,7.70
2022-10-20T18:41:13.599Z,7.90
2022-10-20T18:43:46.088Z,8.00
2022-10-20T18:46:17.335Z,8.20
2022-10-20T18:48:48.221Z,8.20
2022-10-20T18:51:19.257Z,8.40
2022-10-20T18:53:54.099Z,8.50
2022-10-20T18:56:25.776Z,8.60
2022-10-20T18:58:57.605Z,8.70
2022-10-20T19:01:29.491Z,8.80
2022-10-20T19:04:01.303Z,8.70
2022-10-20T19:06:33.208Z,8.80
2022-10-20T19:09:08.337Z,8.90
2022-10-20T19:11:52.582Z,8.90
2022-10-20T19:14:22.895Z,8.90
2022-10-20T19:16:54.007Z,8.90
2022-10-20T19:19:24.440Z,8.80
2022-10-20T19:21:54.600Z,8.70
2022-10-20T19:24:27.530Z,8.50
2022-10-20T19:27:25.236Z,8.30
2022-10-20T19:29:50.331Z,8.10
2022-10-20T19:32:20.859Z,8.00
2022-10-20T19:34:51.248Z,7.80
2022-10-20T19:37:21.568Z,7.70
2022-10-20T19:39:53.442Z,7.70
2022-10-20T19:42:23.662Z,7.50
2022-10-20T19:44:53.915Z,7.20
2022-10-20T19:47:24.234Z,6.80
2022-10-20T19:49:54.491Z,6.40
2022-10-20T19:52:24.856Z,6.10
2022-10-20T19:54:56.756Z,6.10
2022-10-20T19:57:27.317Z,6.00
2022-10-20T19:59:57.599Z,6.00
2022-10-20T20:02:27.781Z,6.00
2022-10-20T20:04:58.122Z,6.00
2022-10-20T20:07:28.484Z,6.10
2022-10-20T20:10:00.709Z,6.10
2022-10-20T20:13:06.866Z,6.20
2022-10-20T20:15:47.886Z,6.20
2022-10-20T20:18:18.365Z,6.20
2022-10-20T20:21:01.946Z,6.20
2022-10-20T20:23:47.592Z,6.20
2022-10-20T20:26:28.400Z,6.00
2022-10-20T20:29:06.155Z,6.00
2022-10-20T20:31:39.946Z,6.00
2022-10-20T20:34:11.669Z,6.00
2022-10-20T20:36:42.648Z,6.00
2022-10-20T20:39:57.370Z,5.90
2022-10-20T20:42:36.996Z,5.90
2022-10-20T20:45:45.739Z,5.90
2022-10-20T20:48:22.108Z,6.00
2022-10-20T20:51:54.287Z,6.00
2022-10-20T20:54:47.082Z,6.00
2022-10-20T21:00:36.482Z,6.10
2022-10-20T21:03:18.048Z,6.10
2022-10-20T21:05:48.495Z,6.10
2022-10-20T21:08:21.560Z,6.00
2022-10-20T21:10:54.954Z,6.00
2022-10-20T21:13:39.427Z,5.90
2022-10-20T21:16:20.312Z,5.90
2022-10-20T21:19:02.451Z,5.80
2022-10-20T21:22:09.752Z,5.80
2022-10-20T21:28:30.946Z,5.60
2022-10-20T21:31:02.439Z,5.60
2022-10-20T21:33:34.463Z,5.60
2022-10-20T21:36:07.107Z,5.50
2022-10-20T21:38:39.145Z,5.50
2022-10-20T21:41:11.091Z,5.50
2022-10-20T21:43:45.793Z,5.50
2022-10-20T21:46:17.814Z,5.40
2022-10-20T21:48:52.454Z,5.40
2022-10-20T21:51:33.526Z,5.40
2022-10-20T21:54:06.003Z,5.30
2022-10-20T21:56:38.548Z,5.30
2022-10-20T21:59:10.066Z,5.20
2022-10-20T22:01:47.604Z,5.20
2022-10-20T22:04:24.421Z,5.20
2022-10-20T22:06:54.845Z,5.20
2022-10-20T22:09:31.912Z,5.20
2022-10-20T22:12:05.459Z,5.20
2022-10-20T22:14:35.770Z,5.20
2022-10-20T22:17:05.985Z,5.10
2022-10-20T22:19:37.954Z,5.10
2022-10-20T22:22:08.725Z,5.00
2022-10-20T22:24:39.026Z,5.00
2022-10-20T22:27:19.999Z,5.00
2022-10-20T22:30:04.297Z,5.00
2022-10-20T22:32:54.674Z,5.00
2022-10-20T22:35:36.956Z,5.00
2022-10-20T22:38:07.892Z,5.00
2022-10-20T22:40:41.427Z,5.00
2022-10-20T22:43:12.059Z,5.00
2022-10-20T22:45:42.828Z,5.00
2022-10-20T22:48:13.457Z,5.00
2022-10-20T22:51:16.961Z,5.00
2022-10-20T22:53:49.499Z,4.90
2022-10-20T22:56:23.103Z,4.90
2022-10-20T22:58:55.246Z,4.90
2022-10-20T23:01:41.843Z,4.90
2022-10-20T23:04:12.850Z,4.80
2022-10-20T23:06:45.608Z,4.70
2022-10-20T23:12:15.875Z,4.80
2022-10-20T23:14:46.477Z,4.70
2022-10-20T23:17:18.666Z,4.70
2022-10-20T23:19:50.501Z,4.70
2022-10-20T23:22:25.238Z,4.70
2022-10-20T23:24:57.485Z,4.60
2022-10-20T23:27:29.844Z,4.70
2022-10-20T23:30:03.602Z,4.70
2022-10-20T23:32:35.018Z,4.70
2022-10-20T23:35:06.155Z,4.70
2022-10-20T23:37:41.057Z,4.70
2022-10-20T23:40:14.496Z,4.70
2022-10-20T23:42:44.848Z,4.70
2022-10-20T23:45:28.167Z,4.80
2022-10-20T23:47:59.494Z,4.80
2022-10-20T23:50:30.341Z,4.80
2022-10-20T23:53:09.786Z,4.90
2022-10-20T23:55:42.047Z,4.90
2022-10-20T23:58:13.102Z,4.90
